Time;durP1;ratioP1;P1;durP2;ratioP2;P2;SDS_P1;SDS_P2;PMS_P1;PMS_P2;Temp;Humidity;BMP_temperature;BMP_pressure;BME280_temperature;BME280_humidity;BME280_pressure;Samples;Min_cycle;Max_cycle;Signal;HPM_P1;HPM_P2
2023/03/31 00:02:15;;;;;;;;;;;;;;;18.25;62.09;99849.86;2274073;77;50312;-72
2023/03/31 00:05:17;;;;;;;;;;;;;;;18.25;62.21;99856.55;2245056;78;50436;-72
2023/03/31 00:08:20;;;;;;;;;;;;;;;18.24;62.18;99856.25;2245352;78;51665;-72
2023/03/31 00:11:21;;;;;;;;;;;;;;;18.24;62.27;99853.06;2245589;78;51521;-73
2023/03/31 00:14:23;;;;;;;;;;;;;;;18.25;62.09;99851.20;2275206;78;49912;-73
2023/03/31 00:17:25;;;;;;;;;;;;;;;18.24;62.08;99845.03;2275524;78;50540;-73
2023/03/31 00:20:26;;;;;;;;;;;;;;;18.24;62.23;99851.72;2245248;78;52426;-72
2023/03/31 00:23:28;;;;;;;;;;;;;;;18.23;62.11;99842.53;2275268;78;52204;-72
2023/03/31 00:26:29;;;;;;;;;;;;;;;18.23;62.24;99841.20;2259356;77;51436;-72
2023/03/31 00:29:32;;;;;;;;;;;;;;;18.22;62.46;99837.70;2323774;76;51431;-72
2023/03/31 00:32:34;;;;;;;;;;;;;;;18.23;62.24;99839.34;2312082;77;50005;-73
2023/03/31 00:35:38;;;;;;;;;;;;;;;18.22;62.30;99832.86;2311697;77;50263;-73
2023/03/31 00:38:38;;;;;;;;;;;;;;;18.24;62.17;99828.96;2312390;76;22485;-72
2023/03/31 00:41:40;;;;;;;;;;;;;;;18.26;62.07;99826.06;2311946;77;50626;-71
2023/03/31 00:44:43;;;;;;;;;;;;;;;18.23;62.25;99829.97;2255901;77;51356;-71
2023/03/31 00:47:46;;;;;;;;;;;;;;;18.24;62.13;99823.60;2307210;76;51518;-72
2023/03/31 00:50:50;;;;;;;;;;;;;;;18.24;62.18;99831.64;2312092;76;50406;-72
2023/03/31 00:53:58;;;;;;;;;;;;;;;18.25;62.12;99825.77;2310886;76;51497;-71
2023/03/31 00:57:02;;;;;;;;;;;;;;;18.25;62.17;99811.86;2314824;76;22264;-72
2023/03/31 01:00:24;;;;;;;;;;;;;;;18.26;62.15;99813.52;2346961;76;22369;-72
2023/03/31 01:03:08;;;;;;;;;;;;;;;18.26;62.15;99808.17;2345980;75;22359;-73
2023/03/31 01:06:10;;;;;;;;;;;;;;;18.26;62.15;99804.64;2347419;76;51594;-73
2023/03/31 01:09:12;;;;;;;;;;;;;;;18.27;62.31;99799.09;2318041;76;52355;-73
2023/03/31 01:12:15;;;;;;;;;;;;;;;18.25;62.32;99798.47;2318251;76;50312;-72
2023/03/31 01:15:16;;;;;;;;;;;;;;;18.27;62.28;99792.92;2347195;76;51538;-72
2023/03/31 01:18:20;;;;;;;;;;;;;;;18.27;62.11;99795.08;2347508;74;51511;-71
2023/03/31 01:21:29;;;;;;;;;;;;;;;18.22;62.64;99777.97;2317759;76;51797;-71
2023/03/31 01:24:40;;;;;;;;;;;;;;;18.19;62.67;99775.19;2346594;76;22396;-71
2023/03/31 01:27:44;;;;;;;;;;;;;;;18.19;62.67;99785.08;2237576;78;51556;-72
2023/03/31 01:30:50;;;;;;;;;;;;;;;18.18;62.75;99769.50;2186461;81;52598;-72
2023/03/31 01:34:02;;;;;;;;;;;;;;;18.18;62.68;99760.13;2186160;81;50224;-72
2023/03/31 01:37:20;;;;;;;;;;;;;;;18.22;62.61;99773.95;2186365;81;51482;-72
2023/03/31 01:40:35;;;;;;;;;;;;;;;18.23;62.50;99770.23;2186391;80;50676;-72
2023/03/31 01:43:41;;;;;;;;;;;;;;;18.22;62.36;99757.37;2186211;81;50315;-72
2023/03/31 01:46:45;;;;;;;;;;;;;;;18.24;62.32;99756.66;2162645;81;51343;-72
2023/03/31 01:49:54;;;;;;;;;;;;;;;18.25;62.55;99757.48;2186466;80;54916;-72
2023/03/31 01:52:59;;;;;;;;;;;;;;;18.24;62.37;99755.84;2186422;80;51430;-73
2023/03/31 01:56:05;;;;;;;;;;;;;;;18.21;62.37;99751.72;2193883;78;50881;-72
2023/03/31 01:59:14;;;;;;;;;;;;;;;18.23;62.31;99747.48;2205541;80;51243;-73
2023/03/31 02:02:23;;;;;;;;;;;;;;;18.22;62.34;99753.88;2220834;78;50286;-74
2023/03/31 02:05:26;;;;;;;;;;;;;;;18.21;62.27;99746.36;2275308;77;51189;-74
2023/03/31 02:08:29;;;;;;;;;;;;;;;18.20;62.31;99735.84;2275315;77;51559;-74
2023/03/31 02:11:30;;;;;;;;;;;;;;;18.19;62.24;99733.69;2245176;78;51245;-74
2023/03/31 02:14:32;;;;;;;;;;;;;;;18.21;62.17;99729.45;2275202;78;50228;-74
2023/03/31 02:17:34;;;;;;;;;;;;;;;18.19;62.25;99739.55;2275449;78;50440;-74
2023/03/31 02:20:35;;;;;;;;;;;;;;;18.20;62.20;99725.13;2275425;77;50343;-74
2023/03/31 02:23:37;;;;;;;;;;;;;;;18.18;62.24;99718.63;2244902;78;50445;-74
2023/03/31 02:26:56;;;;;;;;;;;;;;;18.19;62.22;99714.13;2291342;75;50429;-73
2023/03/31 02:29:57;;;;;;;;;;;;;;;18.18;62.29;99717.28;2301704;77;51503;-74
2023/03/31 02:32:59;;;;;;;;;;;;;;;18.19;62.26;99715.46;2311965;77;50692;-73
2023/03/31 02:36:00;;;;;;;;;;;;;;;18.17;62.31;99708.14;2280476;77;51593;-74
2023/03/31 02:39:04;;;;;;;;;;;;;;;18.17;62.36;99711.63;2312085;76;51309;-72
2023/03/31 02:42:08;;;;;;;;;;;;;;;18.17;62.41;99709.48;2311932;77;50269;-72
2023/03/31 02:45:28;;;;;;;;;;;;;;;18.17;62.46;99697.42;2311832;77;50708;-73
2023/03/31 02:48:37;;;;;;;;;;;;;;;18.18;62.44;99696.39;2280686;77;51194;-74
2023/03/31 02:51:40;;;;;;;;;;;;;;;18.17;62.41;99692.89;2312122;77;50460;-73
2023/03/31 02:55:00;;;;;;;;;;;;;;;18.16;62.45;99696.61;2311301;76;50780;-74
2023/03/31 02:58:12;;;;;;;;;;;;;;;18.15;62.45;99694.94;2315994;76;50292;-74
2023/03/31 03:01:16;;;;;;;;;;;;;;;18.17;62.37;99681.36;2321105;75;51473;-74
2023/03/31 03:04:28;;;;;;;;;;;;;;;18.18;62.39;99680.33;2347176;74;50775;-74
2023/03/31 03:07:31;;;;;;;;;;;;;;;18.19;62.45;99680.66;2347159;76;50366;-74
2023/03/31 03:10:35;;;;;;;;;;;;;;;18.17;62.42;99672.81;2346934;74;50394;-73
2023/03/31 03:13:47;;;;;;;;;;;;;;;18.18;62.37;99677.64;2317472;76;51792;-74
2023/03/31 03:16:50;;;;;;;;;;;;;;;18.18;62.29;99669.61;2347190;74;51499;-74
2023/03/31 03:19:55;;;;;;;;;;;;;;;18.17;62.47;99673.33;2337427;76;51411;-72
2023/03/31 03:22:57;;;;;;;;;;;;;;;18.18;62.48;99662.92;2347238;76;50430;-73
2023/03/31 03:25:58;;;;;;;;;;;;;;;18.17;62.43;99670.13;2292362;75;51423;-72
2023/03/31 03:29:00;;;;;;;;;;;;;;;18.18;62.29;99661.58;2290037;76;50276;-73
2023/03/31 03:32:01;;;;;;;;;;;;;;;18.16;62.09;99665.82;2281047;77;51624;-72
2023/03/31 03:35:03;;;;;;;;;;;;;;;18.16;62.11;99662.30;2281804;77;50007;-72
2023/03/31 03:38:05;;;;;;;;;;;;;;;18.16;62.02;99651.58;2280456;77;51790;-72
2023/03/31 03:41:06;;;;;;;;;;;;;;;18.16;61.89;99651.58;2311801;77;51520;-72
2023/03/31 03:44:08;;;;;;;;;;;;;;;18.13;61.85;99642.63;2280296;77;51453;-72
2023/03/31 03:47:10;;;;;;;;;;;;;;;18.12;61.81;99646.34;2311702;77;50270;-71
2023/03/31 03:50:12;;;;;;;;;;;;;;;18.14;61.79;99637.60;2311785;77;50257;-72
2023/03/31 03:53:14;;;;;;;;;;;;;;;18.12;61.83;99642.33;2280393;77;52763;-71
2023/03/31 03:56:16;;;;;;;;;;;;;;;18.11;61.80;99634.82;2280732;77;50342;-72
2023/03/31 03:59:17;;;;;;;;;;;;;;;18.10;61.70;99628.32;2323663;76;50448;-72
2023/03/31 04:02:19;;;;;;;;;;;;;;;18.12;61.70;99627.61;2280503;77;49890;-71
2023/03/31 04:05:21;;;;;;;;;;;;;;;18.11;61.79;99624.60;2280076;77;52533;-70
2023/03/31 04:08:22;;;;;;;;;;;;;;;18.11;61.77;99624.60;2280303;77;50293;-71
2023/03/31 04:11:24;;;;;;;;;;;;;;;18.12;61.71;99618.23;2280570;77;50073;-72
2023/03/31 04:14:26;;;;;;;;;;;;;;;18.11;61.66;99617.91;2280213;77;51574;-71
2023/03/31 04:17:33;;;;;;;;;;;;;;;18.09;61.66;99614.12;2280833;77;51069;-71
2023/03/31 04:20:36;;;;;;;;;;;;;;;18.09;61.65;99619.47;2282422;77;50384;-71
2023/03/31 04:23:45;;;;;;;;;;;;;;;18.10;61.60;99612.26;2280807;77;51518;-71
2023/03/31 04:26:44;;;;;;;;;;;;;;;18.09;61.61;99615.98;2322119;76;22367;-72
2023/03/31 04:29:53;;;;;;;;;;;;;;;18.08;61.56;99612.45;2257193;77;50180;-71
2023/03/31 04:32:54;;;;;;;;;;;;;;;18.09;61.52;99600.73;2280409;77;22360;-70
2023/03/31 04:35:55;;;;;;;;;;;;;;;18.08;61.53;99592.89;2311706;77;50747;-71
2023/03/31 04:38:57;;;;;;;;;;;;;;;18.08;61.52;99592.89;2311855;77;51346;-70
2023/03/31 04:41:58;;;;;;;;;;;;;;;18.11;61.42;99591.14;2280680;77;51594;-72
2023/03/31 04:45:00;;;;;;;;;;;;;;;18.09;61.38;99586.02;2280435;77;50320;-72
2023/03/31 04:48:02;;;;;;;;;;;;;;;18.11;61.30;99577.75;2311962;77;51505;-71
2023/03/31 04:51:03;;;;;;;;;;;;;;;18.11;61.25;99586.64;2311887;77;50299;-73
2023/03/31 04:54:05;;;;;;;;;;;;;;;18.13;61.25;99574.36;2255980;77;52273;-73
2023/03/31 04:57:06;;;;;;;;;;;;;;;18.11;61.21;99561.69;2285157;76;51483;-73
2023/03/31 05:00:09;;;;;;;;;;;;;;;18.12;61.15;99571.39;2319278;75;50239;-74
2023/03/31 05:03:11;;;;;;;;;;;;;;;18.12;61.10;99564.70;2280806;77;50751;-74
2023/03/31 05:06:14;;;;;;;;;;;;;;;18.10;61.20;99566.23;2280334;77;52574;-74
2023/03/31 05:09:16;;;;;;;;;;;;;;;18.09;61.21;99552.55;2311856;76;51540;-73
2023/03/31 05:12:17;;;;;;;;;;;;;;;18.08;61.22;99555.42;2280431;77;50108;-73
2023/03/31 05:15:19;;;;;;;;;;;;;;;18.06;61.23;99544.94;2311613;77;50031;-74
2023/03/31 05:18:21;;;;;;;;;;;;;;;18.05;61.23;99542.75;2280592;77;51756;-74
2023/03/31 05:21:22;;;;;;;;;;;;;;;18.04;61.59;99537.09;2311963;77;50808;-74
2023/03/31 05:24:24;;;;;;;;;;;;;;;18.03;61.43;99528.77;2311738;77;50299;-74
2023/03/31 05:27:26;;;;;;;;;;;;;;;18.04;61.29;99533.08;2320141;76;50295;-74
2023/03/31 05:30:27;;;;;;;;;;;;;;;18.05;61.24;99533.38;2259460;77;50090;-74
2023/03/31 05:33:29;;;;;;;;;;;;;;;18.04;61.25;99530.41;2280454;77;50335;-74
2023/03/31 05:36:31;;;;;;;;;;;;;;;18.06;61.17;99528.35;2280620;77;50356;-74
2023/03/31 05:39:32;;;;;;;;;;;;;;;18.06;61.11;99524.86;2311956;77;51553;-74
2023/03/31 05:42:34;;;;;;;;;;;;;;;18.09;61.09;99518.27;2256404;77;51786;-74
2023/03/31 05:45:36;;;;;;;;;;;;;;;18.08;61.07;99520.09;2280680;77;51627;-74
2023/03/31 05:48:38;;;;;;;;;;;;;;;18.09;60.99;99514.25;2280609;77;51484;-73
2023/03/31 05:51:39;;;;;;;;;;;;;;;18.11;60.92;99513.51;2311793;77;51466;-74
2023/03/31 05:54:41;;;;;;;;;;;;;;;18.12;60.99;99509.30;2280288;77;52387;-74
2023/03/31 05:57:43;;;;;;;;;;;;;;;18.19;61.13;99507.96;2323740;76;52486;-73
2023/03/31 06:00:44;;;;;;;;;;;;;;;18.20;60.93;99505.58;2281691;77;51431;-73
2023/03/31 06:03:46;;;;;;;;;;;;;;;18.27;60.72;99497.03;2280323;77;50743;-73
2023/03/31 06:06:49;;;;;;;;;;;;;;;18.27;61.08;99494.34;2280073;77;51131;-73
2023/03/31 06:09:50;;;;;;;;;;;;;;;18.27;60.93;99493.83;2280702;76;51649;-73
2023/03/31 06:12:52;;;;;;;;;;;;;;;18.26;60.86;99492.69;2311623;77;51558;-74
2023/03/31 06:15:55;;;;;;;;;;;;;;;18.25;60.76;99477.66;2280413;77;51415;-73
2023/03/31 06:18:57;;;;;;;;;;;;;;;18.22;60.65;99482.11;2278902;77;51743;-73
2023/03/31 06:21:58;;;;;;;;;;;;;;;18.21;60.64;99479.10;2311824;77;51491;-73
2023/03/31 06:25:00;;;;;;;;;;;;;;;18.21;60.56;99474.59;2280170;77;51419;-72
2023/03/31 06:28:02;;;;;;;;;;;;;;;18.26;60.40;99476.62;2323917;76;51492;-75
2023/03/31 06:31:07;;;;;;;;;;;;;;;18.28;60.93;99469.20;2280500;77;52379;-72
2023/03/31 06:34:09;;;;;;;;;;;;;;;18.35;60.89;99466.52;2311508;77;50295;-73
2023/03/31 06:37:10;;;;;;;;;;;;;;;18.37;60.73;99470.64;2311800;77;50354;-73
2023/03/31 06:40:12;;;;;;;;;;;;;;;18.36;60.46;99459.60;2311833;77;50306;-73
2023/03/31 06:43:13;;;;;;;;;;;;;;;18.38;60.42;99450.03;2280419;77;52371;-73
2023/03/31 06:46:15;;;;;;;;;;;;;;;18.43;60.58;99454.23;2311830;77;51344;-74
2023/03/31 06:49:17;;;;;;;;;;;;;;;18.49;60.44;99455.53;2311844;77;52509;-72
2023/03/31 06:52:18;;;;;;;;;;;;;;;18.54;60.36;99458.92;2318422;75;51508;-73
2023/03/31 06:55:20;;;;;;;;;;;;;;;18.58;60.19;99451.31;2285447;77;52322;-73
2023/03/31 06:58:21;;;;;;;;;;;;;;;18.61;60.02;99444.18;2280678;77;51469;-73
2023/03/31 07:01:23;;;;;;;;;;;;;;;18.61;59.88;99446.86;2311941;77;51426;-73
2023/03/31 07:04:25;;;;;;;;;;;;;;;18.59;59.72;99439.55;2311607;77;51492;-72
2023/03/31 07:07:26;;;;;;;;;;;;;;;18.61;59.68;99445.00;2255796;77;51133;-72
2023/03/31 07:10:29;;;;;;;;;;;;;;;18.66;59.59;99436.33;2280593;75;50286;-72
2023/03/31 07:13:30;;;;;;;;;;;;;;;18.69;59.46;99441.25;2311661;77;52233;-73
2023/03/31 07:16:32;;;;;;;;;;;;;;;18.72;59.19;99434.12;2290060;76;51450;-74
2023/03/31 07:19:37;;;;;;;;;;;;;;;18.66;58.96;99426.95;2258116;77;52288;-73
2023/03/31 07:22:37;;;;;;;;;;;;;;;18.57;58.18;99423.67;2281039;77;22393;-74
2023/03/31 07:25:38;;;;;;;;;;;;;;;18.56;57.21;99410.51;2318497;75;50719;-74
2023/03/31 07:28:40;;;;;;;;;;;;;;;18.50;57.06;99414.34;2335696;75;51391;-73
2023/03/31 07:31:42;;;;;;;;;;;;;;;18.47;56.77;99414.77;2291782;76;50970;-73
2023/03/31 07:34:43;;;;;;;;;;;;;;;18.49;56.32;99414.02;2317360;76;50830;-74
2023/03/31 07:37:45;;;;;;;;;;;;;;;18.48;56.45;99422.28;2347204;74;50750;-74
2023/03/31 07:40:47;;;;;;;;;;;;;;;18.47;56.65;99412.59;2347326;75;50434;-73
2023/03/31 07:43:49;;;;;;;;;;;;;;;18.45;56.87;99407.98;2291795;76;50899;-73
2023/03/31 07:46:50;;;;;;;;;;;;;;;18.43;56.99;99396.12;2317539;76;51517;-73
2023/03/31 07:49:52;;;;;;;;;;;;;;;18.44;57.12;99396.42;2347151;76;51459;-73
2023/03/31 07:52:53;;;;;;;;;;;;;;;18.48;57.33;99393.64;2317552;76;53522;-73
2023/03/31 07:55:55;;;;;;;;;;;;;;;18.49;57.38;99382.39;2308784;76;52383;-74
2023/03/31 07:58:56;;;;;;;;;;;;;;;18.55;57.47;99391.43;2323664;76;50771;-73
2023/03/31 08:01:58;;;;;;;;;;;;;;;18.56;57.53;99386.40;2311983;77;51475;-74
2023/03/31 08:05:00;;;;;;;;;;;;;;;18.56;57.53;99385.06;2311725;77;50257;-73
2023/03/31 08:08:01;;;;;;;;;;;;;;;18.50;57.57;99382.20;2281556;77;49847;-74
2023/03/31 08:11:03;;;;;;;;;;;;;;;18.52;57.60;99379.29;2281890;76;50444;-75
2023/03/31 08:14:05;;;;;;;;;;;;;;;18.48;57.60;99374.89;2281395;77;50153;-74
2023/03/31 08:17:06;;;;;;;;;;;;;;;18.46;57.65;99366.76;2312725;77;50351;-74
2023/03/31 08:20:09;;;;;;;;;;;;;;;18.46;57.67;99362.74;2281126;77;52362;-75
2023/03/31 08:23:10;;;;;;;;;;;;;;;18.49;57.65;99362.31;2281922;77;50550;-73
2023/03/31 08:26:20;;;;;;;;;;;;;;;18.47;57.66;99357.19;2313723;77;51412;-74
2023/03/31 08:29:22;;;;;;;;;;;;;;;18.47;57.68;99353.66;2325571;76;50150;-74
2023/03/31 08:32:24;;;;;;;;;;;;;;;18.47;57.77;99357.19;2282326;77;52488;-74
2023/03/31 08:35:25;;;;;;;;;;;;;;;18.47;57.75;99347.81;2282257;77;50502;-75
2023/03/31 08:38:27;;;;;;;;;;;;;;;18.45;57.84;99352.55;2313421;77;51449;-74
2023/03/31 08:41:42;;;;;;;;;;;;;;;18.46;57.81;99339.45;2313516;77;51590;-74
2023/03/31 08:44:51;;;;;;;;;;;;;;;18.47;57.86;99342.95;2281489;77;52381;-74
2023/03/31 08:47:54;;;;;;;;;;;;;;;18.47;57.88;99324.20;2281746;77;50029;-75
2023/03/31 08:50:57;;;;;;;;;;;;;;;18.44;57.89;99322.77;2313772;77;50241;-74
2023/03/31 08:54:06;;;;;;;;;;;;;;;18.43;57.93;99322.48;2314057;77;51646;-74
2023/03/31 08:57:05;;;;;;;;;;;;;;;18.43;57.98;99321.66;2313740;76;22458;-73
2023/03/31 09:00:08;;;;;;;;;;;;;;;18.45;57.93;99322.27;2320826;74;51502;-73
2023/03/31 09:03:13;;;;;;;;;;;;;;;18.42;57.98;99319.51;2311724;76;50376;-73
2023/03/31 09:06:16;;;;;;;;;;;;;;;18.40;58.07;99312.20;2313145;77;51575;-73
2023/03/31 09:09:19;;;;;;;;;;;;;;;18.40;58.08;99313.53;2282077;77;52612;-73
2023/03/31 09:12:21;;;;;;;;;;;;;;;18.41;58.04;99309.00;2312619;75;51482;-73
2023/03/31 09:15:31;;;;;;;;;;;;;;;18.44;58.00;99301.34;2312337;77;50190;-72
2023/03/31 09:18:36;;;;;;;;;;;;;;;18.43;58.03;99298.90;2275066;77;51442;-73
2023/03/31 09:21:39;;;;;;;;;;;;;;;18.46;57.96;99300.62;2281683;77;51534;-73
2023/03/31 09:24:43;;;;;;;;;;;;;;;18.44;57.98;99289.29;2312436;77;50384;-74
2023/03/31 09:27:46;;;;;;;;;;;;;;;18.43;58.03;99282.83;2321862;76;50676;-74
2023/03/31 09:30:50;;;;;;;;;;;;;;;18.40;58.09;99281.41;2348192;75;50191;-74
2023/03/31 09:33:53;;;;;;;;;;;;;;;18.40;58.10;99267.20;2318688;76;51370;-73
2023/03/31 09:36:54;;;;;;;;;;;;;;;18.42;58.06;99269.11;2348133;74;51637;-73
2023/03/31 09:39:57;;;;;;;;;;;;;;;18.41;58.03;99269.64;2318694;76;51545;-73
2023/03/31 09:43:18;;;;;;;;;;;;;;;18.40;58.00;99257.82;2348143;74;51596;-74
2023/03/31 09:46:31;;;;;;;;;;;;;;;18.41;57.91;99255.44;2318425;76;51880;-73
2023/03/31 09:49:31;;;;;;;;;;;;;;;;;;2347534;75;51481;-73
2023/03/31 09:52:35;;;;;;;;;;;;;;;18.41;57.76;99238.84;2348192;75;50018;-73
2023/03/31 09:55:38;;;;;;;;;;;;;;;18.40;57.74;99233.20;2342003;74;50105;-73
2023/03/31 09:58:41;;;;;;;;;;;;;;;18.39;57.69;99229.38;2323140;76;50298;-73
2023/03/31 10:01:46;;;;;;;;;;;;;;;18.42;57.59;99232.47;2292877;76;50166;-74
2023/03/31 10:04:48;;;;;;;;;;;;;;;18.41;57.52;99225.98;2318453;76;51489;-75
2023/03/31 10:07:49;;;;;;;;;;;;;;;18.40;57.57;99217.13;2348101;74;51547;-74
2023/03/31 10:10:58;;;;;;;;;;;;;;;18.40;57.59;99218.47;2348260;76;50801;-74
2023/03/31 10:14:15;;;;;;;;;;;;;;;18.39;57.61;99219.48;2292502;76;50074;-73
2023/03/31 10:17:18;;;;;;;;;;;;;;;18.38;57.58;99212.50;2335665;75;52272;-74
2023/03/31 10:20:37;;;;;;;;;;;;;;;18.35;57.64;99202.75;2348052;75;50159;-74
2023/03/31 10:23:40;;;;;;;;;;;;;;;18.32;57.57;99195.97;2348099;74;50709;-73
2023/03/31 10:26:42;;;;;;;;;;;;;;;18.31;57.67;99184.13;2292751;76;51819;-74
2023/03/31 10:29:44;;;;;;;;;;;;;;;18.32;57.62;99181.25;2348143;76;50794;-74
2023/03/31 10:32:46;;;;;;;;;;;;;;;18.35;57.57;99184.82;2348174;75;51378;-74
2023/03/31 10:35:55;;;;;;;;;;;;;;;18.37;57.56;99180.56;2347955;74;50581;-75
2023/03/31 10:38:57;;;;;;;;;;;;;;;18.36;57.59;99178.94;2318622;76;51753;-74
2023/03/31 10:41:58;;;;;;;;;;;;;;;18.39;57.54;99183.33;2348218;74;51469;-74
2023/03/31 10:45:18;;;;;;;;;;;;;;;18.43;57.49;99172.50;2344168;76;51441;-74
2023/03/31 10:48:21;;;;;;;;;;;;;;;18.40;57.58;99170.27;2332145;76;50901;-73
2023/03/31 10:51:27;;;;;;;;;;;;;;;18.38;57.64;99170.99;2318251;76;51308;-73
2023/03/31 10:54:28;;;;;;;;;;;;;;;18.34;57.76;99164.94;2347612;74;50506;-73
2023/03/31 10:57:43;;;;;;;;;;;;;;;18.36;57.73;99166.36;2347892;74;51584;-73
2023/03/31 11:00:46;;;;;;;;;;;;;;;18.37;57.69;99159.98;2346502;76;51444;-72
2023/03/31 11:04:06;;;;;;;;;;;;;;;18.34;57.76;99159.09;2347641;76;52369;-71
2023/03/31 11:07:07;;;;;;;;;;;;;;;;;;2347816;74;51457;-71
2023/03/31 11:10:10;;;;;;;;;;;;;;;18.33;57.85;99144.57;2348262;76;50799;-72
2023/03/31 11:13:22;;;;;;;;;;;;;;;18.35;57.93;99143.84;2347731;74;50382;-73
2023/03/31 11:16:35;;;;;;;;;;;;;;;18.39;57.95;99141.83;2304620;76;50154;-72
2023/03/31 11:19:41;;;;;;;;;;;;;;;18.42;57.92;99136.55;2314002;76;50728;-74
2023/03/31 11:22:51;;;;;;;;;;;;;;;18.42;57.88;99132.53;2312292;76;51486;-73
2023/03/31 11:25:54;;;;;;;;;;;;;;;18.40;57.89;99132.77;2313447;77;50365;-73
2023/03/31 11:28:58;;;;;;;;;;;;;;;18.42;57.98;99127.17;2278734;77;51738;-74
2023/03/31 11:32:18;;;;;;;;;;;;;;;18.41;57.98;99118.33;2314030;77;51434;-74
2023/03/31 11:35:42;;;;;;;;;;;;;;;19.29;55.80;99115.94;2314785;77;50776;-74
2023/03/31 11:38:47;;;;;;;;;;;;;;;19.32;55.72;99095.36;2314246;76;22319;-73
2023/03/31 11:41:56;;;;;;;;;;;;;;;19.11;56.29;99080.56;2282634;77;51714;-75
2023/03/31 11:45:06;;;;;;;;;;;;;;;18.89;56.32;99072.14;2314039;77;50758;-75
2023/03/31 11:48:26;;;;;;;;;;;;;;;18.71;56.19;99066.75;2325639;76;50700;-76
2023/03/31 11:51:48;;;;;;;;;;;;;;;18.62;55.65;99067.55;2312941;77;50293;-77
2023/03/31 11:54:56;;;;;;;;;;;;;;;18.57;55.57;99065.23;2281357;77;50094;-78
2023/03/31 11:58:02;;;;;;;;;;;;;;;18.49;55.28;99064.48;2313099;77;50374;-77
2023/03/31 12:01:09;;;;;;;;;;;;;;;18.45;55.61;99059.28;2313061;76;51969;-74
2023/03/31 12:04:29;;;;;;;;;;;;;;;18.41;55.65;99050.04;2311803;77;51503;-75
2023/03/31 12:07:41;;;;;;;;;;;;;;;18.40;55.48;99043.06;2280894;77;52947;-74
2023/03/31 12:10:53;;;;;;;;;;;;;;;18.37;55.77;99036.81;2310551;76;52338;-74
2023/03/31 12:13:56;;;;;;;;;;;;;;;18.37;55.27;99039.48;2310292;76;50297;-74
2023/03/31 12:17:02;;;;;;;;;;;;;;;18.36;55.20;99031.14;2324286;76;50270;-75
2023/03/31 12:20:09;;;;;;;;;;;;;;;18.37;55.27;99025.25;2285017;77;52413;-75
2023/03/31 12:23:10;;;;;;;;;;;;;;;18.34;55.48;99019.85;2314854;76;21844;-76
2023/03/31 12:26:17;;;;;;;;;;;;;;;18.33;55.82;99013.37;2309691;76;51457;-75
2023/03/31 12:29:22;;;;;;;;;;;;;;;18.30;56.21;99014.62;2313235;77;51602;-75
2023/03/31 12:32:26;;;;;;;;;;;;;;;18.28;56.74;99014.02;2281910;77;52602;-75
2023/03/31 12:35:45;;;;;;;;;;;;;;;18.26;57.08;99015.59;2312833;77;50710;-74
2023/03/31 12:39:00;;;;;;;;;;;;;;;18.25;57.31;99012.61;2313314;77;51479;-75
2023/03/31 12:42:13;;;;;;;;;;;;;;;18.22;57.57;99020.27;2313216;77;50821;-75
2023/03/31 12:45:16;;;;;;;;;;;;;;;18.21;57.79;99005.23;2286757;76;52469;-74
2023/03/31 12:48:29;;;;;;;;;;;;;;;18.20;58.08;99018.33;2311820;76;51556;-75
2023/03/31 12:51:44;;;;;;;;;;;;;;;18.22;58.36;99011.71;2312413;76;51500;-74
2023/03/31 12:55:02;;;;;;;;;;;;;;;18.20;58.51;99012.97;2311864;77;50818;-74
2023/03/31 12:58:25;;;;;;;;;;;;;;;18.19;58.60;99005.47;2283216;77;50193;-73
2023/03/31 13:01:27;;;;;;;;;;;;;;;18.19;58.85;99003.31;2312414;77;50793;-74
2023/03/31 13:04:29;;;;;;;;;;;;;;;18.20;59.08;99000.92;2312035;77;50382;-73
2023/03/31 13:07:32;;;;;;;;;;;;;;;18.18;59.41;98997.64;2312313;77;51620;-74
2023/03/31 13:10:35;;;;;;;;;;;;;;;18.19;59.55;98994.76;2314318;77;51430;-73
2023/03/31 13:13:38;;;;;;;;;;;;;;;18.21;59.50;98990.51;2308838;76;50806;-72
2023/03/31 13:16:40;;;;;;;;;;;;;;;18.22;59.59;98984.12;2322531;75;50698;-72
2023/03/31 13:19:42;;;;;;;;;;;;;;;18.19;59.70;98979.22;2312837;76;50362;-73
2023/03/31 13:22:46;;;;;;;;;;;;;;;18.19;59.90;98981.90;2257662;77;50032;-73
2023/03/31 13:25:48;;;;;;;;;;;;;;;18.18;60.14;98978.38;2314295;77;50478;-73
2023/03/31 13:28:52;;;;;;;;;;;;;;;18.19;60.20;98968.52;2312047;77;50883;-73
2023/03/31 13:32:01;;;;;;;;;;;;;;;18.16;60.44;98975.62;2307790;76;50280;-73
2023/03/31 13:35:04;;;;;;;;;;;;;;;18.14;60.70;98961.14;2280411;77;51799;-72
2023/03/31 13:38:24;;;;;;;;;;;;;;;18.14;60.81;98973.19;2310154;76;50492;-73
2023/03/31 13:41:45;;;;;;;;;;;;;;;18.17;60.69;98979.43;2311943;77;50287;-72
2023/03/31 13:44:54;;;;;;;;;;;;;;;18.17;60.78;98975.94;2311499;77;51577;-72
2023/03/31 13:47:57;;;;;;;;;;;;;;;18.16;60.94;98967.59;2292966;76;50118;-73
2023/03/31 13:51:17;;;;;;;;;;;;;;;18.15;61.19;98969.45;2312235;77;49954;-73
2023/03/31 13:54:37;;;;;;;;;;;;;;;18.16;61.18;98968.94;2312720;77;50787;-73
2023/03/31 13:57:52;;;;;;;;;;;;;;;18.14;61.19;98969.17;2312978;77;50319;-74
2023/03/31 14:00:55;;;;;;;;;;;;;;;18.14;61.15;98964.34;2281478;75;50979;-74
2023/03/31 14:04:14;;;;;;;;;;;;;;;18.15;61.39;98961.95;2314700;76;50422;-73
2023/03/31 14:07:20;;;;;;;;;;;;;;;18.16;61.30;98970.27;2313017;76;50087;-73
2023/03/31 14:10:23;;;;;;;;;;;;;;;18.15;61.39;98971.33;2313105;77;51722;-74
2023/03/31 14:13:25;;;;;;;;;;;;;;;18.14;61.46;98966.50;2280809;75;51015;-73
2023/03/31 14:16:27;;;;;;;;;;;;;;;18.12;61.58;98967.23;2281595;77;51626;-74
2023/03/31 14:19:33;;;;;;;;;;;;;;;18.13;61.61;98970.19;2313545;77;50677;-77
2023/03/31 14:22:36;;;;;;;;;;;;;;;18.11;61.62;98965.61;2312322;77;50491;-76
2023/03/31 14:25:41;;;;;;;;;;;;;;;18.12;63.01;98967.23;2280250;77;51334;-75
2023/03/31 14:28:45;;;;;;;;;;;;;;;18.18;62.75;98967.67;2311875;77;50702;-75
2023/03/31 14:31:48;;;;;;;;;;;;;;;18.23;63.08;98971.84;2312251;77;51493;-76
2023/03/31 14:35:01;;;;;;;;;;;;;;;18.30;63.83;98970.45;2335807;76;51497;-75
2023/03/31 14:38:02;;;;;;;;;;;;;;;18.33;64.13;98971.34;2292999;76;49657;-74
2023/03/31 14:41:04;;;;;;;;;;;;;;;18.33;63.72;98969.19;2312004;77;50622;-74
2023/03/31 14:44:06;;;;;;;;;;;;;;;18.31;63.74;98962.70;2280693;77;51501;-74
2023/03/31 14:47:14;;;;;;;;;;;;;;;18.28;63.61;98964.49;2311955;77;50438;-73
2023/03/31 14:50:16;;;;;;;;;;;;;;;18.27;63.46;98958.33;2256524;77;50155;-74
2023/03/31 14:53:20;;;;;;;;;;;;;;;18.26;63.77;98958.53;2267805;77;50852;-74
2023/03/31 14:56:24;;;;;;;;;;;;;;;18.33;64.18;98953.94;2311610;77;51555;-73
2023/03/31 14:59:28;;;;;;;;;;;;;;;18.32;64.77;98947.48;2311617;77;50652;-73
2023/03/31 15:02:31;;;;;;;;;;;;;;;18.35;65.15;98953.20;2280485;77;52483;-73
2023/03/31 15:05:33;;;;;;;;;;;;;;;18.41;65.46;98954.16;2311531;77;51578;-72
2023/03/31 15:08:36;;;;;;;;;;;;;;;18.47;65.86;98946.06;2311712;76;51588;-71
2023/03/31 15:11:37;;;;;;;;;;;;;;;18.50;66.02;98951.49;2311742;77;50418;-74
2023/03/31 15:14:40;;;;;;;;;;;;;;;18.47;66.12;98945.22;2279709;76;51196;-73
2023/03/31 15:17:42;;;;;;;;;;;;;;;18.54;65.94;98946.49;2311439;76;51627;-73
2023/03/31 15:20:44;;;;;;;;;;;;;;;18.58;65.86;98947.17;2311838;77;51422;-72
2023/03/31 15:23:47;;;;;;;;;;;;;;;18.53;66.28;98941.66;2311630;77;51600;-73
2023/03/31 15:26:56;;;;;;;;;;;;;;;18.51;66.18;98945.08;2280372;77;51582;-71
2023/03/31 15:29:59;;;;;;;;;;;;;;;18.51;66.21;98943.74;2310690;76;51554;-72
2023/03/31 15:33:01;;;;;;;;;;;;;;;18.56;65.99;98949.25;2311599;77;50466;-71
2023/03/31 15:36:03;;;;;;;;;;;;;;;18.57;65.87;98947.38;2311664;77;51467;-71
2023/03/31 15:39:05;;;;;;;;;;;;;;;18.60;65.67;98945.59;2280355;77;52500;-73
2023/03/31 15:42:06;;;;;;;;;;;;;;;18.62;65.31;98946.19;2311841;77;50378;-73
2023/03/31 15:45:10;;;;;;;;;;;;;;;18.57;65.36;98944.70;2311485;77;50234;-72
2023/03/31 15:48:16;;;;;;;;;;;;;;;18.55;65.67;98948.12;2308500;76;51554;-72
2023/03/31 15:51:19;;;;;;;;;;;;;;;18.56;65.63;98945.75;2280497;77;49835;-71
2023/03/31 15:54:37;;;;;;;;;;;;;;;18.61;65.93;98939.20;2280704;77;50862;-72
2023/03/31 15:57:39;;;;;;;;;;;;;;;18.63;65.64;98941.14;2311746;77;51569;-72
2023/03/31 16:00:44;;;;;;;;;;;;;;;18.57;65.23;98935.33;2280495;77;53582;-70
2023/03/31 16:03:44;;;;;;;;;;;;;;;18.54;64.92;98927.22;2311884;76;22357;-75